Aviation Digital Data Service (ADDS)

Output produced by METARs form (1034 UTC 17 June 2019)
found at http://www.aviationweather.gov/metar/data/
 
METAR text: VTSM 171030Z 29004KT 9999 FEW020 28/24 Q1008 NOSIG
Conditions at: VTSM (SAMUI , TH) observed 1030 UTC 17 June 2019
Temperature: 28.0°C (82°F)
Dewpoint: 24.0°C (75°F) [RH = 79%]
Pressure (altimeter): 29.76 inches Hg (1008.0 mb)
Winds: from the WNW (290 degrees) at 5 MPH (4 knots; 2.1 m/s)
Visibility: 6 or more miles (10+ km)
Ceiling: at least 12,000 feet AGL
Clouds: few clouds at 2000 feet AGL
Weather: no significant weather observed at this time

METAR text: VTSM 171000Z 28005KT 9999 FEW020 28/24 Q1008 NOSIG
Conditions at: VTSM (SAMUI , TH) observed 1000 UTC 17 June 2019
Temperature: 28.0°C (82°F)
Dewpoint: 24.0°C (75°F) [RH = 79%]
Pressure (altimeter): 29.76 inches Hg (1008.0 mb)
Winds: from the W (280 degrees) at 6 MPH (5 knots; 2.6 m/s)
Visibility: 6 or more miles (10+ km)
Ceiling: at least 12,000 feet AGL
Clouds: few clouds at 2000 feet AGL
Weather: no significant weather observed at this time

METAR text: VTSM 170930Z 30004KT 9999 FEW018 SCT100 28/24 Q1008 NOSIG
Conditions at: VTSM (SAMUI , TH) observed 0930 UTC 17 June 2019
Temperature: 28.0°C (82°F)
Dewpoint: 24.0°C (75°F) [RH = 79%]
Pressure (altimeter): 29.76 inches Hg (1008.0 mb)
Winds: from the WNW (300 degrees) at 5 MPH (4 knots; 2.1 m/s)
Visibility: 6 or more miles (10+ km)
Ceiling: at least 12,000 feet AGL
Clouds: few clouds at 1800 feet AGL
scattered clouds at 10000 feet AGL
Weather: no significant weather observed at this time

METAR text: VTSM 170900Z 29008KT 9999 FEW018 27/24 Q1009 NOSIG
Conditions at: VTSM (SAMUI , TH) observed 0900 UTC 17 June 2019
Temperature: 27.0°C (81°F)
Dewpoint: 24.0°C (75°F) [RH = 84%]
Pressure (altimeter): 29.79 inches Hg (1009.0 mb)
Winds: from the WNW (290 degrees) at 9 MPH (8 knots; 4.1 m/s)
Visibility: 6 or more miles (10+ km)
Ceiling: at least 12,000 feet AGL
Clouds: few clouds at 1800 feet AGL
Weather: no significant weather observed at this time

METAR text: VTSM 170830Z 32005KT 9999 -RA FEW018 27/25 Q1009 NOSIG
Conditions at: VTSM (SAMUI , TH) observed 0830 UTC 17 June 2019
Temperature: 27.0°C (81°F)
Dewpoint: 25.0°C (77°F) [RH = 89%]
Pressure (altimeter): 29.79 inches Hg (1009.0 mb)
Winds: from the NW (320 degrees) at 6 MPH (5 knots; 2.6 m/s)
Visibility: 6 or more miles (10+ km)
Ceiling: at least 12,000 feet AGL
Clouds: few clouds at 1800 feet AGL
Weather: -RA  (light rain)

METAR text: VTSM 170800Z 31010KT 9000 -RA FEW018 SCT100 26/25 Q1009 RERA NOSIG
Conditions at: VTSM (SAMUI , TH) observed 0800 UTC 17 June 2019
Temperature: 26.0°C (79°F)
Dewpoint: 25.0°C (77°F) [RH = 94%]
Pressure (altimeter): 29.79 inches Hg (1009.0 mb)
Winds: from the NW (310 degrees) at 12 MPH (10 knots; 5.1 m/s)
Visibility: 6 miles ( 9 km)
Ceiling: at least 12,000 feet AGL
Clouds: few clouds at 1800 feet AGL
scattered clouds at 10000 feet AGL
Weather: -RA  (light rain)

METAR text: VTSM 170730Z 29017G27KT 3000 RA SCT018 FEW020CB SCT100 28/23 Q1010 TEMPO TL0800 2000 +RA
Conditions at: VTSM (SAMUI , TH) observed 0730 UTC 17 June 2019
Temperature: 28.0°C (82°F)
Dewpoint: 23.0°C (73°F) [RH = 74%]
Pressure (altimeter): 29.82 inches Hg (1010.0 mb)
Winds: from the WNW (290 degrees) at 20 MPH (17 knots; 8.7 m/s)
gusting to 31 MPH (27 knots; 13.9 m/s)
Visibility: 1.86 miles (2.99 km)
Ceiling: at least 12,000 feet AGL
Clouds: scattered clouds at 1800 feet AGL
few clouds at 2000 feet AGL
scattered clouds at 10000 feet AGL
Weather: RA  (moderate rain)

METAR text: VTSM 170700Z 31007KT 9000 SCT020TCU 32/26 Q1009 NOSIG
Conditions at: VTSM (SAMUI , TH) observed 0700 UTC 17 June 2019
Temperature: 32.0°C (90°F)
Dewpoint: 26.0°C (79°F) [RH = 71%]
Pressure (altimeter): 29.79 inches Hg (1009.0 mb)
Winds: from the NW (310 degrees) at 8 MPH (7 knots; 3.6 m/s)
Visibility: 6 miles ( 9 km)
Ceiling: at least 12,000 feet AGL
Clouds: scattered clouds at 2000 feet AGL
Weather: no significant weather observed at this time

METAR text: VTSM 170630Z 30004KT 9999 -DZ FEW020 31/26 Q1010 NOSIG
Conditions at: VTSM (SAMUI , TH) observed 0630 UTC 17 June 2019
Temperature: 31.0°C (88°F)
Dewpoint: 26.0°C (79°F) [RH = 75%]
Pressure (altimeter): 29.82 inches Hg (1010.0 mb)
Winds: from the WNW (300 degrees) at 5 MPH (4 knots; 2.1 m/s)
Visibility: 6 or more miles (10+ km)
Ceiling: at least 12,000 feet AGL
Clouds: few clouds at 2000 feet AGL
Weather: -DZ  (light drizzle)

METAR text: VTSM 170600Z 29005KT 9999 -RA FEW020 31/25 Q1010 NOSIG
Conditions at: VTSM (SAMUI , TH) observed 0600 UTC 17 June 2019
Temperature: 31.0°C (88°F)
Dewpoint: 25.0°C (77°F) [RH = 71%]
Pressure (altimeter): 29.82 inches Hg (1010.0 mb)
Winds: from the WNW (290 degrees) at 6 MPH (5 knots; 2.6 m/s)
Visibility: 6 or more miles (10+ km)
Ceiling: at least 12,000 feet AGL
Clouds: few clouds at 2000 feet AGL
Weather: -RA  (light rain)

METAR text: VTSM 170530Z 31004KT 9999 -DZ FEW020 31/25 Q1010 NOSIG
Conditions at: VTSM (SAMUI , TH) observed 0530 UTC 17 June 2019
Temperature: 31.0°C (88°F)
Dewpoint: 25.0°C (77°F) [RH = 71%]
Pressure (altimeter): 29.82 inches Hg (1010.0 mb)
Winds: from the NW (310 degrees) at 5 MPH (4 knots; 2.1 m/s)
Visibility: 6 or more miles (10+ km)
Ceiling: at least 12,000 feet AGL
Clouds: few clouds at 2000 feet AGL
Weather: -DZ  (light drizzle)

METAR text: VTSM 170500Z VRB02KT 9999 FEW020 31/25 Q1010 NOSIG
Conditions at: VTSM (SAMUI , TH) observed 0500 UTC 17 June 2019
Temperature: 31.0°C (88°F)
Dewpoint: 25.0°C (77°F) [RH = 71%]
Pressure (altimeter): 29.82 inches Hg (1010.0 mb)
Winds: variable direction winds at 2 MPH (2 knots; 1.0 m/s)
Visibility: 6 or more miles (10+ km)
Ceiling: at least 12,000 feet AGL
Clouds: few clouds at 2000 feet AGL
Weather: no significant weather observed at this time

METAR text: VTSM 170430Z 30003KT 9999 -DZ FEW020 31/25 Q1010 NOSIG
Conditions at: VTSM (SAMUI , TH) observed 0430 UTC 17 June 2019
Temperature: 31.0°C (88°F)
Dewpoint: 25.0°C (77°F) [RH = 71%]
Pressure (altimeter): 29.82 inches Hg (1010.0 mb)
Winds: from the WNW (300 degrees) at 3 MPH (3 knots; 1.5 m/s)
Visibility: 6 or more miles (10+ km)
Ceiling: at least 12,000 feet AGL
Clouds: few clouds at 2000 feet AGL
Weather: -DZ  (light drizzle)

METAR text: VTSM 170400Z 28005KT 9999 -DZ FEW020 31/25 Q1010 NOSIG
Conditions at: VTSM (SAMUI , TH) observed 0400 UTC 17 June 2019
Temperature: 31.0°C (88°F)
Dewpoint: 25.0°C (77°F) [RH = 71%]
Pressure (altimeter): 29.82 inches Hg (1010.0 mb)
Winds: from the W (280 degrees) at 6 MPH (5 knots; 2.6 m/s)
Visibility: 6 or more miles (10+ km)
Ceiling: at least 12,000 feet AGL
Clouds: few clouds at 2000 feet AGL
Weather: -DZ  (light drizzle)

METAR text: VTSM 170330Z 29006KT 9999 FEW020 32/25 Q1010 NOSIG
Conditions at: VTSM (SAMUI , TH) observed 0330 UTC 17 June 2019
Temperature: 32.0°C (90°F)
Dewpoint: 25.0°C (77°F) [RH = 67%]
Pressure (altimeter): 29.82 inches Hg (1010.0 mb)
Winds: from the WNW (290 degrees) at 7 MPH (6 knots; 3.1 m/s)
Visibility: 6 or more miles (10+ km)
Ceiling: at least 12,000 feet AGL
Clouds: few clouds at 2000 feet AGL
Weather: no significant weather observed at this time

METAR text: VTSM 170300Z 27006KT 9999 -DZ FEW020 SCT100 31/25 Q1010 NOSIG
Conditions at: VTSM (SAMUI , TH) observed 0300 UTC 17 June 2019
Temperature: 31.0°C (88°F)
Dewpoint: 25.0°C (77°F) [RH = 71%]
Pressure (altimeter): 29.82 inches Hg (1010.0 mb)
Winds: from the W (270 degrees) at 7 MPH (6 knots; 3.1 m/s)
Visibility: 6 or more miles (10+ km)
Ceiling: at least 12,000 feet AGL
Clouds: few clouds at 2000 feet AGL
scattered clouds at 10000 feet AGL
Weather: -DZ  (light drizzle)

METAR text: VTSM 170230Z 29005KT 260V330 9999 -DZ FEW020 SCT100 31/25 Q1011 NOSIG
Conditions at: VTSM (SAMUI , TH) observed 0230 UTC 17 June 2019
Temperature: 31.0°C (88°F)
Dewpoint: 25.0°C (77°F) [RH = 71%]
Pressure (altimeter): 29.85 inches Hg (1011.0 mb)
Winds: from the WNW (290 degrees) at 6 MPH (5 knots; 2.6 m/s)
Visibility: 6 or more miles (10+ km)
Ceiling: at least 12,000 feet AGL
Clouds: few clouds at 2000 feet AGL
scattered clouds at 10000 feet AGL
Weather: -DZ  (light drizzle)

METAR text: VTSM 170200Z 30004KT 9999 -DZ FEW020 SCT100 30/25 Q1011 NOSIG
Conditions at: VTSM (SAMUI , TH) observed 0200 UTC 17 June 2019
Temperature: 30.0°C (86°F)
Dewpoint: 25.0°C (77°F) [RH = 75%]
Pressure (altimeter): 29.85 inches Hg (1011.0 mb)
Winds: from the WNW (300 degrees) at 5 MPH (4 knots; 2.1 m/s)
Visibility: 6 or more miles (10+ km)
Ceiling: at least 12,000 feet AGL
Clouds: few clouds at 2000 feet AGL
scattered clouds at 10000 feet AGL
Weather: -DZ  (light drizzle)

METAR text: VTSM 170130Z 28004KT 9999 -DZ FEW020 SCT100 30/25 Q1010 NOSIG
Conditions at: VTSM (SAMUI , TH) observed 0130 UTC 17 June 2019
Temperature: 30.0°C (86°F)
Dewpoint: 25.0°C (77°F) [RH = 75%]
Pressure (altimeter): 29.82 inches Hg (1010.0 mb)
Winds: from the W (280 degrees) at 5 MPH (4 knots; 2.1 m/s)
Visibility: 6 or more miles (10+ km)
Ceiling: at least 12,000 feet AGL
Clouds: few clouds at 2000 feet AGL
scattered clouds at 10000 feet AGL
Weather: -DZ  (light drizzle)

METAR text: VTSM 170100Z VRB02KT 9999 FEW020 SCT100 30/25 Q1010 NOSIG
Conditions at: VTSM (SAMUI , TH) observed 0100 UTC 17 June 2019
Temperature: 30.0°C (86°F)
Dewpoint: 25.0°C (77°F) [RH = 75%]
Pressure (altimeter): 29.82 inches Hg (1010.0 mb)
Winds: variable direction winds at 2 MPH (2 knots; 1.0 m/s)
Visibility: 6 or more miles (10+ km)
Ceiling: at least 12,000 feet AGL
Clouds: few clouds at 2000 feet AGL
scattered clouds at 10000 feet AGL
Weather: no significant weather observed at this time

METAR text: VTSM 170030Z 29003KT 9999 FEW020 SCT100 30/25 Q1010 NOSIG
Conditions at: VTSM (SAMUI , TH) observed 0030 UTC 17 June 2019
Temperature: 30.0°C (86°F)
Dewpoint: 25.0°C (77°F) [RH = 75%]
Pressure (altimeter): 29.82 inches Hg (1010.0 mb)
Winds: from the WNW (290 degrees) at 3 MPH (3 knots; 1.5 m/s)
Visibility: 6 or more miles (10+ km)
Ceiling: at least 12,000 feet AGL
Clouds: few clouds at 2000 feet AGL
scattered clouds at 10000 feet AGL
Weather: no significant weather observed at this time

METAR text: VTSM 170000Z VRB02KT 9999 FEW020 SCT100 29/25 Q1009 NOSIG
Conditions at: VTSM (SAMUI , TH) observed 0000 UTC 17 June 2019
Temperature: 29.0°C (84°F)
Dewpoint: 25.0°C (77°F) [RH = 79%]
Pressure (altimeter): 29.79 inches Hg (1009.0 mb)
Winds: variable direction winds at 2 MPH (2 knots; 1.0 m/s)
Visibility: 6 or more miles (10+ km)
Ceiling: at least 12,000 feet AGL
Clouds: few clouds at 2000 feet AGL
scattered clouds at 10000 feet AGL
Weather: no significant weather observed at this time

METAR text: VTSM 162330Z 00000KT 9999 FEW020 SCT100 29/25 Q1009 NOSIG
Conditions at: VTSM (SAMUI , TH) observed 2330 UTC 16 June 2019
Temperature: 29.0°C (84°F)
Dewpoint: 25.0°C (77°F) [RH = 79%]
Pressure (altimeter): 29.79 inches Hg (1009.0 mb)
Winds: calm
Visibility: 6 or more miles (10+ km)
Ceiling: at least 12,000 feet AGL
Clouds: few clouds at 2000 feet AGL
scattered clouds at 10000 feet AGL
Weather: no significant weather observed at this time

METAR text: VTSM 162300Z 28003KT 9999 FEW020 29/24 Q1008 NOSIG
Conditions at: VTSM (SAMUI , TH) observed 2300 UTC 16 June 2019
Temperature: 29.0°C (84°F)
Dewpoint: 24.0°C (75°F) [RH = 74%]
Pressure (altimeter): 29.76 inches Hg (1008.0 mb)
Winds: from the W (280 degrees) at 3 MPH (3 knots; 1.5 m/s)
Visibility: 6 or more miles (10+ km)
Ceiling: at least 12,000 feet AGL
Clouds: few clouds at 2000 feet AGL
Weather: no significant weather observed at this time

METAR text: VTSM 162230Z VRB02KT 9999 FEW020 29/24 Q1008 NOSIG
Conditions at: VTSM (SAMUI , TH) observed 2230 UTC 16 June 2019
Temperature: 29.0°C (84°F)
Dewpoint: 24.0°C (75°F) [RH = 74%]
Pressure (altimeter): 29.76 inches Hg (1008.0 mb)
Winds: variable direction winds at 2 MPH (2 knots; 1.0 m/s)
Visibility: 6 or more miles (10+ km)
Ceiling: at least 12,000 feet AGL
Clouds: few clouds at 2000 feet AGL
Weather: no significant weather observed at this time

METAR text: VTSM 162200Z 00000KT 9999 FEW020 29/25 Q1008 NOSIG
Conditions at: VTSM (SAMUI , TH) observed 2200 UTC 16 June 2019
Temperature: 29.0°C (84°F)
Dewpoint: 25.0°C (77°F) [RH = 79%]
Pressure (altimeter): 29.76 inches Hg (1008.0 mb)
Winds: calm
Visibility: 6 or more miles (10+ km)
Ceiling: at least 12,000 feet AGL
Clouds: few clouds at 2000 feet AGL
Weather: no significant weather observed at this time

METAR text: VTSM 161500Z 29007KT 240V320 9999 FEW020 30/24 Q1010 NOSIG
Conditions at: VTSM (SAMUI , TH) observed 1500 UTC 16 June 2019
Temperature: 30.0°C (86°F)
Dewpoint: 24.0°C (75°F) [RH = 70%]
Pressure (altimeter): 29.82 inches Hg (1010.0 mb)
Winds: from the WNW (290 degrees) at 8 MPH (7 knots; 3.6 m/s)
Visibility: 6 or more miles (10+ km)
Ceiling: at least 12,000 feet AGL
Clouds: few clouds at 2000 feet AGL
Weather: no significant weather observed at this time

METAR text: VTSM 161430Z 28006KT 9999 FEW020 30/23 Q1010 NOSIG
Conditions at: VTSM (SAMUI , TH) observed 1430 UTC 16 June 2019
Temperature: 30.0°C (86°F)
Dewpoint: 23.0°C (73°F) [RH = 66%]
Pressure (altimeter): 29.82 inches Hg (1010.0 mb)
Winds: from the W (280 degrees) at 7 MPH (6 knots; 3.1 m/s)
Visibility: 6 or more miles (10+ km)
Ceiling: at least 12,000 feet AGL
Clouds: few clouds at 2000 feet AGL
Weather: no significant weather observed at this time

METAR text: VTSM 161400Z 26004KT 9999 FEW020 30/24 Q1009 NOSIG
Conditions at: VTSM (SAMUI , TH) observed 1400 UTC 16 June 2019
Temperature: 30.0°C (86°F)
Dewpoint: 24.0°C (75°F) [RH = 70%]
Pressure (altimeter): 29.79 inches Hg (1009.0 mb)
Winds: from the W (260 degrees) at 5 MPH (4 knots; 2.1 m/s)
Visibility: 6 or more miles (10+ km)
Ceiling: at least 12,000 feet AGL
Clouds: few clouds at 2000 feet AGL
Weather: no significant weather observed at this time

METAR text: VTSM 161330Z 25005KT 9999 FEW020 30/25 Q1009 NOSIG
Conditions at: VTSM (SAMUI , TH) observed 1330 UTC 16 June 2019
Temperature: 30.0°C (86°F)
Dewpoint: 25.0°C (77°F) [RH = 75%]
Pressure (altimeter): 29.79 inches Hg (1009.0 mb)
Winds: from the WSW (250 degrees) at 6 MPH (5 knots; 2.6 m/s)
Visibility: 6 or more miles (10+ km)
Ceiling: at least 12,000 feet AGL
Clouds: few clouds at 2000 feet AGL
Weather: no significant weather observed at this time

METAR text: VTSM 161300Z 30003KT 9999 FEW020 30/25 Q1008 NOSIG
Conditions at: VTSM (SAMUI , TH) observed 1300 UTC 16 June 2019
Temperature: 30.0°C (86°F)
Dewpoint: 25.0°C (77°F) [RH = 75%]
Pressure (altimeter): 29.76 inches Hg (1008.0 mb)
Winds: from the WNW (300 degrees) at 3 MPH (3 knots; 1.5 m/s)
Visibility: 6 or more miles (10+ km)
Ceiling: at least 12,000 feet AGL
Clouds: few clouds at 2000 feet AGL
Weather: no significant weather observed at this time

METAR text: VTSM 161230Z 00000KT 9999 FEW020 30/25 Q1008 NOSIG
Conditions at: VTSM (SAMUI , TH) observed 1230 UTC 16 June 2019
Temperature: 30.0°C (86°F)
Dewpoint: 25.0°C (77°F) [RH = 75%]
Pressure (altimeter): 29.76 inches Hg (1008.0 mb)
Winds: calm
Visibility: 6 or more miles (10+ km)
Ceiling: at least 12,000 feet AGL
Clouds: few clouds at 2000 feet AGL
Weather: no significant weather observed at this time

METAR text: VTSM 161200Z 11003KT 9999 FEW020 30/25 Q1008 NOSIG
Conditions at: VTSM (SAMUI , TH) observed 1200 UTC 16 June 2019
Temperature: 30.0°C (86°F)
Dewpoint: 25.0°C (77°F) [RH = 75%]
Pressure (altimeter): 29.76 inches Hg (1008.0 mb)
Winds: from the ESE (110 degrees) at 3 MPH (3 knots; 1.5 m/s)
Visibility: 6 or more miles (10+ km)
Ceiling: at least 12,000 feet AGL
Clouds: few clouds at 2000 feet AGL
Weather: no significant weather observed at this time

METAR text: VTSM 161130Z 00000KT 9999 FEW020 31/25 Q1008 NOSIG
Conditions at: VTSM (SAMUI , TH) observed 1130 UTC 16 June 2019
Temperature: 31.0°C (88°F)
Dewpoint: 25.0°C (77°F) [RH = 71%]
Pressure (altimeter): 29.76 inches Hg (1008.0 mb)
Winds: calm
Visibility: 6 or more miles (10+ km)
Ceiling: at least 12,000 feet AGL
Clouds: few clouds at 2000 feet AGL
Weather: no significant weather observed at this time

METAR text: VTSM 161100Z VRB02KT 9999 FEW020TCU 30/25 Q1008 NOSIG
Conditions at: VTSM (SAMUI , TH) observed 1100 UTC 16 June 2019
Temperature: 30.0°C (86°F)
Dewpoint: 25.0°C (77°F) [RH = 75%]
Pressure (altimeter): 29.76 inches Hg (1008.0 mb)
Winds: variable direction winds at 2 MPH (2 knots; 1.0 m/s)
Visibility: 6 or more miles (10+ km)
Ceiling: at least 12,000 feet AGL
Clouds: few clouds at 2000 feet AGL
Weather: no significant weather observed at this time

METAR text: VTSM 161030Z 28007KT 9999 VCSH FEW020TCU 32/25 Q1008 NOSIG
Conditions at: VTSM (SAMUI , TH) observed 1030 UTC 16 June 2019
Temperature: 32.0°C (90°F)
Dewpoint: 25.0°C (77°F) [RH = 67%]
Pressure (altimeter): 29.76 inches Hg (1008.0 mb)
Winds: from the W (280 degrees) at 8 MPH (7 knots; 3.6 m/s)
Visibility: 6 or more miles (10+ km)
Ceiling: at least 12,000 feet AGL
Clouds: few clouds at 2000 feet AGL
Weather: VCSH  (showers in vicinity)

METAR text: VTSM 161000Z 27006KT 220V330 9999 FEW020 33/25 Q1007 NOSIG
Conditions at: VTSM (SAMUI , TH) observed 1000 UTC 16 June 2019
Temperature: 33.0°C (91°F)
Dewpoint: 25.0°C (77°F) [RH = 63%]
Pressure (altimeter): 29.73 inches Hg (1007.0 mb)
Winds: from the W (270 degrees) at 7 MPH (6 knots; 3.1 m/s)
Visibility: 6 or more miles (10+ km)
Ceiling: at least 12,000 feet AGL
Clouds: few clouds at 2000 feet AGL
Weather: no significant weather observed at this time

METAR text: VTSM 160930Z 28005KT 9999 FEW020 32/25 Q1007 NOSIG
Conditions at: VTSM (SAMUI , TH) observed 0930 UTC 16 June 2019
Temperature: 32.0°C (90°F)
Dewpoint: 25.0°C (77°F) [RH = 67%]
Pressure (altimeter): 29.73 inches Hg (1007.0 mb)
Winds: from the W (280 degrees) at 6 MPH (5 knots; 2.6 m/s)
Visibility: 6 or more miles (10+ km)
Ceiling: at least 12,000 feet AGL
Clouds: few clouds at 2000 feet AGL
Weather: no significant weather observed at this time

METAR text: VTSM 160900Z 27009KT 210V310 9999 FEW020 32/25 Q1007 NOSIG
Conditions at: VTSM (SAMUI , TH) observed 0900 UTC 16 June 2019
Temperature: 32.0°C (90°F)
Dewpoint: 25.0°C (77°F) [RH = 67%]
Pressure (altimeter): 29.73 inches Hg (1007.0 mb)
Winds: from the W (270 degrees) at 10 MPH (9 knots; 4.6 m/s)
Visibility: 6 or more miles (10+ km)
Ceiling: at least 12,000 feet AGL
Clouds: few clouds at 2000 feet AGL
Weather: no significant weather observed at this time

METAR text: VTSM 160830Z 28010KT 240V330 9999 VCSH FEW020TCU 33/25 Q1007 NOSIG
Conditions at: VTSM (SAMUI , TH) observed 0830 UTC 16 June 2019
Temperature: 33.0°C (91°F)
Dewpoint: 25.0°C (77°F) [RH = 63%]
Pressure (altimeter): 29.73 inches Hg (1007.0 mb)
Winds: from the W (280 degrees) at 12 MPH (10 knots; 5.1 m/s)
Visibility: 6 or more miles (10+ km)
Ceiling: at least 12,000 feet AGL
Clouds: few clouds at 2000 feet AGL
Weather: VCSH  (showers in vicinity)

METAR text: VTSM 160800Z 29007KT 230V330 9999 VCSH FEW020TCU 34/25 Q1007 NOSIG
Conditions at: VTSM (SAMUI , TH) observed 0800 UTC 16 June 2019
Temperature: 34.0°C (93°F)
Dewpoint: 25.0°C (77°F) [RH = 60%]
Pressure (altimeter): 29.73 inches Hg (1007.0 mb)
Winds: from the WNW (290 degrees) at 8 MPH (7 knots; 3.6 m/s)
Visibility: 6 or more miles (10+ km)
Ceiling: at least 12,000 feet AGL
Clouds: few clouds at 2000 feet AGL
Weather: VCSH  (showers in vicinity)

METAR text: VTSM 160730Z 28009KT 230V300 9999 FEW020 34/24 Q1008 NOSIG
Conditions at: VTSM (SAMUI , TH) observed 0730 UTC 16 June 2019
Temperature: 34.0°C (93°F)
Dewpoint: 24.0°C (75°F) [RH = 56%]
Pressure (altimeter): 29.76 inches Hg (1008.0 mb)
Winds: from the W (280 degrees) at 10 MPH (9 knots; 4.6 m/s)
Visibility: 6 or more miles (10+ km)
Ceiling: at least 12,000 feet AGL
Clouds: few clouds at 2000 feet AGL
Weather: no significant weather observed at this time

METAR text: VTSM 160700Z 29010KT 9999 FEW020 33/24 Q1008 NOSIG
Conditions at: VTSM (SAMUI , TH) observed 0700 UTC 16 June 2019
Temperature: 33.0°C (91°F)
Dewpoint: 24.0°C (75°F) [RH = 59%]
Pressure (altimeter): 29.76 inches Hg (1008.0 mb)
Winds: from the WNW (290 degrees) at 12 MPH (10 knots; 5.1 m/s)
Visibility: 6 or more miles (10+ km)
Ceiling: at least 12,000 feet AGL
Clouds: few clouds at 2000 feet AGL
Weather: no significant weather observed at this time

METAR text: VTSM 160630Z 27011KT 9999 FEW020 33/24 Q1008 NOSIG
Conditions at: VTSM (SAMUI , TH) observed 0630 UTC 16 June 2019
Temperature: 33.0°C (91°F)
Dewpoint: 24.0°C (75°F) [RH = 59%]
Pressure (altimeter): 29.76 inches Hg (1008.0 mb)
Winds: from the W (270 degrees) at 13 MPH (11 knots; 5.7 m/s)
Visibility: 6 or more miles (10+ km)
Ceiling: at least 12,000 feet AGL
Clouds: few clouds at 2000 feet AGL
Weather: no significant weather observed at this time

METAR text: VTSM 160600Z 27012KT 9999 FEW020 33/24 Q1009 NOSIG
Conditions at: VTSM (SAMUI , TH) observed 0600 UTC 16 June 2019
Temperature: 33.0°C (91°F)
Dewpoint: 24.0°C (75°F) [RH = 59%]
Pressure (altimeter): 29.79 inches Hg (1009.0 mb)
Winds: from the W (270 degrees) at 14 MPH (12 knots; 6.2 m/s)
Visibility: 6 or more miles (10+ km)
Ceiling: at least 12,000 feet AGL
Clouds: few clouds at 2000 feet AGL
Weather: no significant weather observed at this time

METAR text: VTSM 160530Z 28012KT 9999 FEW020 32/24 Q1009 NOSIG
Conditions at: VTSM (SAMUI , TH) observed 0530 UTC 16 June 2019
Temperature: 32.0°C (90°F)
Dewpoint: 24.0°C (75°F) [RH = 63%]
Pressure (altimeter): 29.79 inches Hg (1009.0 mb)
Winds: from the W (280 degrees) at 14 MPH (12 knots; 6.2 m/s)
Visibility: 6 or more miles (10+ km)
Ceiling: at least 12,000 feet AGL
Clouds: few clouds at 2000 feet AGL
Weather: no significant weather observed at this time

METAR text: VTSM 160500Z 26006KT 210V330 9999 FEW020 32/24 Q1010 NOSIG
Conditions at: VTSM (SAMUI , TH) observed 0500 UTC 16 June 2019
Temperature: 32.0°C (90°F)
Dewpoint: 24.0°C (75°F) [RH = 63%]
Pressure (altimeter): 29.82 inches Hg (1010.0 mb)
Winds: from the W (260 degrees) at 7 MPH (6 knots; 3.1 m/s)
Visibility: 6 or more miles (10+ km)
Ceiling: at least 12,000 feet AGL
Clouds: few clouds at 2000 feet AGL
Weather: no significant weather observed at this time

METAR text: VTSM 160430Z 27007KT 240V330 9999 FEW020 32/24 Q1010 NOSIG
Conditions at: VTSM (SAMUI , TH) observed 0430 UTC 16 June 2019
Temperature: 32.0°C (90°F)
Dewpoint: 24.0°C (75°F) [RH = 63%]
Pressure (altimeter): 29.82 inches Hg (1010.0 mb)
Winds: from the W (270 degrees) at 8 MPH (7 knots; 3.6 m/s)
Visibility: 6 or more miles (10+ km)
Ceiling: at least 12,000 feet AGL
Clouds: few clouds at 2000 feet AGL
Weather: no significant weather observed at this time

METAR text: VTSM 160400Z 28008KT 9999 FEW020 32/24 Q1010 NOSIG
Conditions at: VTSM (SAMUI , TH) observed 0400 UTC 16 June 2019
Temperature: 32.0°C (90°F)
Dewpoint: 24.0°C (75°F) [RH = 63%]
Pressure (altimeter): 29.82 inches Hg (1010.0 mb)
Winds: from the W (280 degrees) at 9 MPH (8 knots; 4.1 m/s)
Visibility: 6 or more miles (10+ km)
Ceiling: at least 12,000 feet AGL
Clouds: few clouds at 2000 feet AGL
Weather: no significant weather observed at this time

METAR text: VTSM 160330Z 27008KT 9999 FEW020 32/24 Q1010 NOSIG
Conditions at: VTSM (SAMUI , TH) observed 0330 UTC 16 June 2019
Temperature: 32.0°C (90°F)
Dewpoint: 24.0°C (75°F) [RH = 63%]
Pressure (altimeter): 29.82 inches Hg (1010.0 mb)
Winds: from the W (270 degrees) at 9 MPH (8 knots; 4.1 m/s)
Visibility: 6 or more miles (10+ km)
Ceiling: at least 12,000 feet AGL
Clouds: few clouds at 2000 feet AGL
Weather: no significant weather observed at this time

METAR text: VTSM 160300Z 26007KT 9999 FEW020 32/24 Q1011 NOSIG
Conditions at: VTSM (SAMUI , TH) observed 0300 UTC 16 June 2019
Temperature: 32.0°C (90°F)
Dewpoint: 24.0°C (75°F) [RH = 63%]
Pressure (altimeter): 29.85 inches Hg (1011.0 mb)
Winds: from the W (260 degrees) at 8 MPH (7 knots; 3.6 m/s)
Visibility: 6 or more miles (10+ km)
Ceiling: at least 12,000 feet AGL
Clouds: few clouds at 2000 feet AGL
Weather: no significant weather observed at this time

METAR text: VTSM 160230Z 27005KT 9999 FEW020 31/24 Q1010 NOSIG
Conditions at: VTSM (SAMUI , TH) observed 0230 UTC 16 June 2019
Temperature: 31.0°C (88°F)
Dewpoint: 24.0°C (75°F) [RH = 66%]
Pressure (altimeter): 29.82 inches Hg (1010.0 mb)
Winds: from the W (270 degrees) at 6 MPH (5 knots; 2.6 m/s)
Visibility: 6 or more miles (10+ km)
Ceiling: at least 12,000 feet AGL
Clouds: few clouds at 2000 feet AGL
Weather: no significant weather observed at this time

METAR text: VTSM 160200Z 28005KT 9999 FEW020 31/24 Q1010 NOSIG
Conditions at: VTSM (SAMUI , TH) observed 0200 UTC 16 June 2019
Temperature: 31.0°C (88°F)
Dewpoint: 24.0°C (75°F) [RH = 66%]
Pressure (altimeter): 29.82 inches Hg (1010.0 mb)
Winds: from the W (280 degrees) at 6 MPH (5 knots; 2.6 m/s)
Visibility: 6 or more miles (10+ km)
Ceiling: at least 12,000 feet AGL
Clouds: few clouds at 2000 feet AGL
Weather: no significant weather observed at this time

METAR text: VTSM 160130Z 29003KT 9999 FEW020 30/24 Q1010 NOSIG
Conditions at: VTSM (SAMUI , TH) observed 0130 UTC 16 June 2019
Temperature: 30.0°C (86°F)
Dewpoint: 24.0°C (75°F) [RH = 70%]
Pressure (altimeter): 29.82 inches Hg (1010.0 mb)
Winds: from the WNW (290 degrees) at 3 MPH (3 knots; 1.5 m/s)
Visibility: 6 or more miles (10+ km)
Ceiling: at least 12,000 feet AGL
Clouds: few clouds at 2000 feet AGL
Weather: no significant weather observed at this time

METAR text: VTSM 160100Z 23004KT 9999 FEW020 29/23 Q1010 NOSIG
Conditions at: VTSM (SAMUI , TH) observed 0100 UTC 16 June 2019
Temperature: 29.0°C (84°F)
Dewpoint: 23.0°C (73°F) [RH = 70%]
Pressure (altimeter): 29.82 inches Hg (1010.0 mb)
Winds: from the SW (230 degrees) at 5 MPH (4 knots; 2.1 m/s)
Visibility: 6 or more miles (10+ km)
Ceiling: at least 12,000 feet AGL
Clouds: few clouds at 2000 feet AGL
Weather: no significant weather observed at this time

METAR text: VTSM 160030Z 27003KT 9999 FEW020 29/24 Q1010 NOSIG
Conditions at: VTSM (SAMUI , TH) observed 0030 UTC 16 June 2019
Temperature: 29.0°C (84°F)
Dewpoint: 24.0°C (75°F) [RH = 74%]
Pressure (altimeter): 29.82 inches Hg (1010.0 mb)
Winds: from the W (270 degrees) at 3 MPH (3 knots; 1.5 m/s)
Visibility: 6 or more miles (10+ km)
Ceiling: at least 12,000 feet AGL
Clouds: few clouds at 2000 feet AGL
Weather: no significant weather observed at this time

METAR text: VTSM 160000Z 26003KT 9999 FEW020 29/24 Q1009 NOSIG
Conditions at: VTSM (SAMUI , TH) observed 0000 UTC 16 June 2019
Temperature: 29.0°C (84°F)
Dewpoint: 24.0°C (75°F) [RH = 74%]
Pressure (altimeter): 29.79 inches Hg (1009.0 mb)
Winds: from the W (260 degrees) at 3 MPH (3 knots; 1.5 m/s)
Visibility: 6 or more miles (10+ km)
Ceiling: at least 12,000 feet AGL
Clouds: few clouds at 2000 feet AGL
Weather: no significant weather observed at this time

METAR text: VTSM 152330Z 27005KT 9999 FEW020 SCT100 29/24 Q1009 NOSIG
Conditions at: VTSM (SAMUI , TH) observed 2330 UTC 15 June 2019
Temperature: 29.0°C (84°F)
Dewpoint: 24.0°C (75°F) [RH = 74%]
Pressure (altimeter): 29.79 inches Hg (1009.0 mb)
Winds: from the W (270 degrees) at 6 MPH (5 knots; 2.6 m/s)
Visibility: 6 or more miles (10+ km)
Ceiling: at least 12,000 feet AGL
Clouds: few clouds at 2000 feet AGL
scattered clouds at 10000 feet AGL
Weather: no significant weather observed at this time

METAR text: VTSM 152300Z 25005KT 9999 FEW020 SCT100 29/24 Q1008 NOSIG
Conditions at: VTSM (SAMUI , TH) observed 2300 UTC 15 June 2019
Temperature: 29.0°C (84°F)
Dewpoint: 24.0°C (75°F) [RH = 74%]
Pressure (altimeter): 29.76 inches Hg (1008.0 mb)
Winds: from the WSW (250 degrees) at 6 MPH (5 knots; 2.6 m/s)
Visibility: 6 or more miles (10+ km)
Ceiling: at least 12,000 feet AGL
Clouds: few clouds at 2000 feet AGL
scattered clouds at 10000 feet AGL
Weather: no significant weather observed at this time

Forecast for: VTSM (SAMUI , TH)
Text: TAF VTSM 170500Z 1706/1806 29008KT 9999 FEW020 SCT100
Forecast period: 0600 UTC 17 June 2019 to 0600 UTC 18 June 2019
Forecast type: FROM: standard forecast or significant change
Winds: from the WNW (290 degrees) at 9 MPH (8 knots; 4.1 m/s)
Visibility: 6 or more miles 10+ km)
Ceiling: at least 12,000 feet AGL
Clouds: few clouds at 2000 feet AGL
scattered clouds at 10000 feet AGL
Weather: no significant weather forecast for this period
Text: TEMPO 1706/1712 28010G20KT 3000 TSRA FEW016CB SCT018 BKN100
Forecast period: 0600 to 1200 UTC 17 June 2019
Forecast type: TEMPORARY: The following changes expected for less than half the time period
Winds: from the W (280 degrees) at 12 MPH (10 knots; 5.1 m/s)
gusting to 23 MPH (20 knots; 10.3 m/s)
Visibility: 1.86 miles (2.99 km)
Ceiling: 10000 feet AGL
Clouds: few clouds at 1600 feet AGL
scattered clouds at 1800 feet AGL
broken clouds at 10000 feet AGL
Weather: TSRA  (rain associated with thunderstorm(s))
Text: TEMPO 1712/1718 28010G20KT 3000 TSRA FEW016CB SCT018 BKN100
Forecast period: 1200 to 1800 UTC 17 June 2019
Forecast type: TEMPORARY: The following changes expected for less than half the time period
Winds: from the W (280 degrees) at 12 MPH (10 knots; 5.1 m/s)
gusting to 23 MPH (20 knots; 10.3 m/s)
Visibility: 1.86 miles (2.99 km)
Ceiling: 10000 feet AGL
Clouds: few clouds at 1600 feet AGL
scattered clouds at 1800 feet AGL
broken clouds at 10000 feet AGL
Weather: TSRA  (rain associated with thunderstorm(s))
Text: TEMPO 1721/1803 28010G20KT 5000 TSRA FEW016CB SCT018 BKN100
Forecast period: 2100 UTC 17 June 2019 to 0300 UTC 18 June 2019
Forecast type: TEMPORARY: The following changes expected for less than half the time period
Winds: from the W (280 degrees) at 12 MPH (10 knots; 5.1 m/s)
gusting to 23 MPH (20 knots; 10.3 m/s)
Visibility: 3 miles (5 km)
Ceiling: 10000 feet AGL
Clouds: few clouds at 1600 feet AGL
scattered clouds at 1800 feet AGL
broken clouds at 10000 feet AGL
Weather: TSRA  (rain associated with thunderstorm(s))